Crew | Aerofun Virtual



 METAR AND TAF INFORMATION
METAR FOR EGGP
ADDS - METARS form results

(1609 UTC 17 February 2020)
Data provider http://aviationweather.gov/metar/data/
 
METAR text: EGGP 171550Z 25019G37KT 9999 6000S SHRA FEW020 SCT039CB 07/03 Q1006
Conditions at: EGGP (LIVERPOOL AIRPOR, GB) observed 1550 UTC 17 February 2020
Temperature: 7.0°C (45°F)
Dewpoint: 3.0°C (37°F) [RH = 76%]
Pressure (altimeter): 29.70 inches Hg (1006.0 mb)
Winds: from the WSW (250 degrees) at 22 MPH (19 knots; 9.8 m/s)
gusting to 43 MPH (37 knots; 19.0 m/s)
Visibility: 6 or more miles (10+ km)
Ceiling: at least 12,000 feet AGL
Clouds: few clouds at 2000 feet AGL
scattered clouds at 3900 feet AGL
Weather: SHRA  (rain showers)

METAR text: EGGP 171520Z 25021KT 9999 8000S VCSH FEW025 SCT037 09/03 Q1006
Conditions at: EGGP (LIVERPOOL AIRPOR, GB) observed 1520 UTC 17 February 2020
Temperature: 9.0°C (48°F)
Dewpoint: 3.0°C (37°F) [RH = 66%]
Pressure (altimeter): 29.70 inches Hg (1006.0 mb)
Winds: from the WSW (250 degrees) at 24 MPH (21 knots; 10.8 m/s)
Visibility: 6 or more miles (10+ km)
Ceiling: at least 12,000 feet AGL
Clouds: few clouds at 2500 feet AGL
scattered clouds at 3700 feet AGL
Weather: VCSH  (showers in vicinity)

Forecast for: EGGP (LIVERPOOL AIRPOR, GB)
Text: TAF EGGP 171100Z 1712/1812 25017KT 9999 SCT030
Forecast period: 1200 UTC 17 February 2020 to 1200 UTC 18 February 2020
Forecast type: FROM: standard forecast or significant change
Winds: from the WSW (250 degrees) at 20 MPH (17 knots; 8.7 m/s)
Visibility: 6 or more miles 10+ km)
Ceiling: at least 12,000 feet AGL
Clouds: scattered clouds at 3000 feet AGL
Weather: no significant weather forecast for this period
Text: TEMPO 1712/1724 26020G32KT 7000 SHRA
Forecast period: 1200 UTC 17 February 2020 to 0000 UTC 18 February 2020
Forecast type: TEMPORARY: The following changes expected for less than half the time period
Winds: from the W (260 degrees) at 23 MPH (20 knots; 10.3 m/s)
gusting to 37 MPH (32 knots; 16.5 m/s)
Visibility: 4 miles (7 km)
Ceiling: unknown
Clouds: missing
Weather: SHRA  (rain showers)
Text: PROB30
Forecast period: 0600 to 1200 UTC 18 February 2020
Forecast type: TEMPORARY: The following changes expected for less than half the time period
Visibility: 5 miles (8 km)
Ceiling: unknown
Clouds: missing
Weather: SHRA  (rain showers)

 AIRPORT MAP

 RUNWAY INFORMATION
Runway 09 Runway length 7500 ft Runway width 151 ft
Runway elevation 59 ft Runway displaced threshold 200 ft Runway heading 86
Runway 27 Runway length 7500 ft Runway width 151 ft
Runway elevation 77 ft Runway displaced threshold 0 ft Runway heading 266

 AIRPORT FREQUENCIES
Type APP Name APP Frequency 119.85 MHZ
Type ATIS Name ATIS Frequency 124.325 MHZ
Type GND Name GND Frequency 121.95 MHZ
Type TWR Name TWR Frequency 126.35 MHZ

 AIRPORT NEAR NAVIGATION AIDS